Time;durP1;ratioP1;P1;durP2;ratioP2;P2;SDS_P1;SDS_P2;PMS_P1;PMS_P2;Temp;Humidity;BMP_temperature;BMP_pressure;BME280_temperature;BME280_humidity;BME280_pressure;Samples;Min_cycle;Max_cycle;Signal;HPM_P1;HPM_P2
2023/03/08 00:00:23;;;;;;;5.50;3.20;;;;;;;0.86;80.07;97914.92;220549;1257;140637;-66
2023/03/08 00:05:47;;;;;;;3.30;2.90;;;;;;;0.84;80.16;97914.60;220182;1257;139669;-66
2023/03/08 00:10:50;;;;;;;5.00;3.00;;;;;;;0.79;80.13;97915.73;220403;1257;140438;-67
2023/03/08 00:15:52;;;;;;;6.50;3.10;;;;;;;0.79;80.21;97916.90;220135;1256;140492;-65
2023/03/08 00:21:04;;;;;;;4.00;3.00;;;;;;;0.79;80.29;97917.98;219163;1257;140257;-66
2023/03/08 00:26:10;;;;;;;5.00;3.80;;;;;;;0.79;80.53;97919.04;219079;1261;141804;-65
2023/03/08 00:31:13;;;;;;;3.80;3.10;;;;;;;0.80;80.46;97916.20;219752;1257;140302;-68
2023/03/08 00:36:18;;;;;;;4.40;4.00;;;;;;;0.84;80.93;97915.07;217846;1257;139703;-66
2023/03/08 00:41:22;;;;;;;4.80;4.00;;;;;;;0.84;80.85;97917.70;217878;1257;140416;-63
2023/03/08 00:46:26;;;;;;;5.10;4.60;;;;;;;0.79;81.09;97922.63;218684;1257;139914;-63
2023/03/08 00:51:29;;;;;;;6.80;5.90;;;;;;;0.75;80.90;97921.61;217945;1257;139524;-64
2023/03/08 00:56:32;;;;;;;6.50;4.60;;;;;;;0.73;81.41;97920.21;218452;1257;139702;-62
2023/03/08 01:01:36;;;;;;;9.40;7.70;;;;;;;0.65;80.96;97925.39;217682;1257;140136;-63
2023/03/08 01:06:42;;;;;;;8.60;7.20;;;;;;;0.59;81.34;97929.77;218290;1259;140008;-62
2023/03/08 01:11:46;;;;;;;11.70;7.50;;;;;;;0.59;81.61;97931.29;217801;1260;139519;-63
2023/03/08 01:16:49;;;;;;;9.00;7.80;;;;;;;0.57;81.53;97926.46;217851;1257;139854;-63
2023/03/08 01:21:52;;;;;;;8.70;6.90;;;;;;;0.53;81.76;97920.61;218333;1257;141540;-64
2023/03/08 01:26:57;;;;;;;4.70;3.90;;;;;;;0.53;81.98;97918.42;218121;1259;141208;-64
2023/03/08 01:32:00;;;;;;;6.90;5.90;;;;;;;0.51;81.88;97916.34;219432;1257;140520;-64
2023/03/08 01:37:04;;;;;;;12.90;6.80;;;;;;;0.46;81.87;97907.95;218275;1257;139919;-63
2023/03/08 01:42:07;;;;;;;9.10;5.90;;;;;;;0.46;81.84;97906.70;217715;1257;141904;-64
2023/03/08 01:47:21;;;;;;;6.60;5.10;;;;;;;0.46;82.19;97914.24;218801;1257;139714;-64
2023/03/08 01:52:32;;;;;;;7.10;5.00;;;;;;;0.41;81.83;97920.29;218088;1257;140667;-64
2023/03/08 01:57:40;;;;;;;9.50;6.20;;;;;;;0.36;81.85;97929.08;220377;1256;140343;-65
2023/03/08 02:03:03;;;;;;;9.80;6.60;;;;;;;0.32;82.08;97933.69;220460;1256;140748;-65
2023/03/08 02:08:07;;;;;;;13.10;7.10;;;;;;;0.34;82.23;97931.74;220361;1257;140946;-66
2023/03/08 02:13:11;;;;;;;7.00;5.10;;;;;;;0.38;82.03;97930.23;218350;1260;140241;-66
2023/03/08 02:18:16;;;;;;;5.80;4.20;;;;;;;0.41;82.32;97933.80;220411;1257;220627;-67
2023/03/08 02:23:22;;;;;;;5.00;4.50;;;;;;;0.39;81.99;97942.08;219091;1257;139610;-66
2023/03/08 02:28:27;;;;;;;5.50;4.00;;;;;;;0.40;81.96;97948.36;218922;1258;140999;-64
2023/03/08 02:33:32;;;;;;;3.00;2.60;;;;;;;0.39;82.36;97951.60;219039;1257;140891;-66
2023/03/08 02:38:36;;;;;;;5.50;3.30;;;;;;;0.35;81.98;97966.41;218107;1257;141008;-66
2023/03/08 02:43:41;;;;;;;5.30;4.30;;;;;;;0.32;82.03;97973.81;217830;1257;140951;-65
2023/03/08 02:48:45;;;;;;;2.80;2.20;;;;;;;0.32;82.34;97978.17;218383;1259;139789;-66
2023/03/08 02:53:49;;;;;;;4.90;3.40;;;;;;;0.28;82.26;97990.10;218460;1259;139598;-66
2023/03/08 02:58:53;;;;;;;5.00;3.50;;;;;;;0.22;82.12;97995.14;218084;1259;139765;-66
2023/03/08 03:03:56;;;;;;;4.80;4.40;;;;;;;0.17;82.35;97998.03;218111;1258;139730;-66
2023/03/08 03:09:00;;;;;;;7.90;4.50;;;;;;;0.14;82.37;98006.95;218772;1256;142937;-65
2023/03/08 03:14:03;;;;;;;8.80;5.70;;;;;;;0.13;82.50;98011.80;218087;1257;139586;-65
2023/03/08 03:19:04;;;;;;;8.00;5.80;;;;;;;0.13;82.28;98013.84;218064;1259;140352;-65
2023/03/08 03:24:06;;;;;;;13.10;5.60;;;;;;;0.06;82.42;98015.48;217893;1258;139924;-66
2023/03/08 03:29:10;;;;;;;5.20;3.70;;;;;;;0.03;82.62;98019.05;219086;1259;140705;-65
2023/03/08 03:34:13;;;;;;;8.80;6.50;;;;;;;0.02;82.47;98027.36;217841;1257;140358;-63
2023/03/08 03:39:17;;;;;;;7.70;6.00;;;;;;;0.02;82.87;98029.48;218900;1257;139849;-65
2023/03/08 03:44:20;;;;;;;9.40;6.10;;;;;;;0.02;82.96;98042.42;218482;1259;140490;-65
2023/03/08 03:49:24;;;;;;;8.30;5.70;;;;;;;0.02;82.70;98051.98;219839;1256;140491;-65
2023/03/08 03:54:28;;;;;;;8.20;5.90;;;;;;;0.02;82.79;98053.04;219515;1258;140604;-64
2023/03/08 03:59:32;;;;;;;11.70;6.00;;;;;;;0.00;82.78;98054.39;218964;1259;140102;-64
2023/03/08 04:04:34;;;;;;;12.80;7.00;;;;;;;0.03;82.71;98046.94;220415;1259;140043;-64
2023/03/08 04:09:38;;;;;;;12.30;6.60;;;;;;;0.07;82.73;98045.72;220537;1260;140757;-64
2023/03/08 04:14:42;;;;;;;9.30;7.60;;;;;;;0.08;82.71;98047.68;218817;1256;2018919;-67
2023/03/08 04:19:49;;;;;;;11.00;7.20;;;;;;;0.06;82.45;98067.20;219420;1259;140590;-66
2023/03/08 04:24:52;;;;;;;8.80;6.70;;;;;;;0.00;82.25;98084.40;218677;1258;140817;-67
2023/03/08 04:29:56;;;;;;;12.70;7.20;;;;;;;-0.04;82.36;98087.13;217917;1260;140638;-62
2023/03/08 04:34:59;;;;;;;9.00;7.20;;;;;;;-0.07;82.87;98087.46;217997;1257;140694;-63
2023/03/08 04:40:06;;;;;;;11.30;7.30;;;;;;;-0.05;82.96;98094.83;218340;1257;141939;-63
2023/03/08 04:45:11;;;;;;;13.40;8.30;;;;;;;-0.05;82.67;98090.15;217682;1260;141067;-63
2023/03/08 04:50:14;;;;;;;9.40;6.70;;;;;;;-0.07;82.85;98096.67;218634;1256;140754;-65
2023/03/08 04:55:18;;;;;;;8.80;6.90;;;;;;;-0.04;82.76;98100.84;217984;1257;140629;-63
2023/03/08 05:00:21;;;;;;;12.10;7.90;;;;;;;0.01;83.01;98110.48;217797;1257;154494;-65
2023/03/08 05:05:25;;;;;;;9.70;7.40;;;;;;;0.02;83.22;98108.77;218369;1256;139090;-63
2023/03/08 05:10:27;;;;;;;14.30;8.50;;;;;;;0.00;83.14;98114.95;217930;1260;139564;-64
2023/03/08 05:15:29;;;;;;;19.90;8.60;;;;;;;-0.02;83.25;98123.03;219678;1257;141779;-63
2023/03/08 05:20:33;;;;;;;11.90;7.60;;;;;;;0.04;83.05;98127.17;217739;1260;140097;-63
2023/03/08 05:25:45;;;;;;;10.30;7.30;;;;;;;0.07;83.16;98133.02;218163;1257;140044;-63
2023/03/08 05:30:48;;;;;;;14.00;12.20;;;;;;;0.04;83.21;98138.86;219181;1260;139383;-64
2023/03/08 05:35:54;;;;;;;15.00;9.40;;;;;;;0.03;83.39;98146.52;217535;1260;139723;-66
2023/03/08 05:41:03;;;;;;;11.00;7.30;;;;;;;0.06;83.18;98152.45;218736;1260;139647;-64
2023/03/08 05:46:10;;;;;;;14.10;7.90;;;;;;;0.11;83.01;98155.61;220321;1258;142286;-64
2023/03/08 05:51:16;;;;;;;16.90;9.70;;;;;;;0.18;83.17;98158.55;220479;1256;140165;-67
2023/03/08 05:56:22;;;;;;;17.10;11.70;;;;;;;0.23;83.18;98171.55;220468;1257;140605;-66
2023/03/08 06:01:27;;;;;;;15.80;8.10;;;;;;;0.34;82.86;98173.96;219571;1257;139958;-66
2023/03/08 06:06:30;;;;;;;12.00;10.10;;;;;;;0.48;82.33;98186.23;219999;1257;142282;-65
2023/03/08 06:11:33;;;;;;;10.80;7.70;;;;;;;0.57;82.44;98196.03;219916;1256;140104;-65
2023/03/08 06:16:37;;;;;;;9.90;8.60;;;;;;;0.68;82.14;98198.35;220274;1257;151223;-64
2023/03/08 06:21:43;;;;;;;14.40;10.00;;;;;;;0.80;81.97;98209.16;218579;1257;138857;-65
2023/03/08 06:26:47;;;;;;;13.30;10.10;;;;;;;0.95;81.94;98212.73;218619;1257;141670;-65
2023/03/08 06:31:52;;;;;;;14.70;10.80;;;;;;;1.05;81.71;98225.13;217552;1256;141377;-62
2023/03/08 06:36:58;;;;;;;11.60;9.60;;;;;;;1.05;81.68;98230.41;218174;1257;140081;-64
2023/03/08 06:42:02;;;;;;;15.20;10.10;;;;;;;1.10;81.96;98238.63;218096;1258;139880;-65
2023/03/08 06:47:11;;;;;;;14.20;9.40;;;;;;;1.10;81.97;98245.52;218397;1260;139451;-65
2023/03/08 06:52:14;;;;;;;20.60;15.20;;;;;;;1.18;82.03;98254.38;218454;1256;141717;-63
2023/03/08 06:57:17;;;;;;;29.10;17.30;;;;;;;1.28;81.59;98255.88;218541;1257;141069;-63
2023/03/08 07:02:21;;;;;;;22.70;13.40;;;;;;;1.40;81.63;98259.89;217729;1257;140153;-62
2023/03/08 07:07:24;;;;;;;29.80;18.20;;;;;;;1.47;81.80;98266.11;219171;1256;139998;-66
2023/03/08 07:12:27;;;;;;;32.10;19.70;;;;;;;1.54;81.36;98269.02;217621;1257;139940;-65
2023/03/08 07:17:31;;;;;;;17.40;12.90;;;;;;;1.79;81.24;98271.75;218574;1257;140132;-67
2023/03/08 07:22:35;;;;;;;32.10;19.20;;;;;;;1.93;80.94;98279.34;217731;1260;140721;-64
2023/03/08 07:27:38;;;;;;;14.30;10.80;;;;;;;2.31;81.16;98282.39;217744;1260;139589;-64
2023/03/08 07:32:43;;;;;;;20.10;10.40;;;;;;;3.51;80.99;98289.67;218093;1260;151278;-64
2023/03/08 07:37:47;;;;;;;11.40;9.80;;;;;;;4.50;79.77;98292.14;218873;1257;140728;-65
2023/03/08 07:42:50;;;;;;;12.00;8.00;;;;;;;5.46;78.94;98296.82;218748;1258;139857;-66
2023/03/08 07:47:53;;;;;;;9.40;7.20;;;;;;;6.00;77.83;98299.73;219669;1256;140417;-67
2023/03/08 07:52:58;;;;;;;10.40;6.70;;;;;;;6.27;76.85;98301.17;218477;1256;140387;-65
2023/03/08 07:58:00;;;;;;;8.00;7.20;;;;;;;6.22;75.19;98307.64;217530;1257;143147;-65
2023/03/08 08:03:03;;;;;;;11.50;8.20;;;;;;;5.92;74.84;98308.68;218029;1256;140001;-67
2023/03/08 08:08:06;;;;;;;6.60;5.70;;;;;;;5.43;74.05;98315.31;220174;1257;139872;-67
2023/03/08 08:13:09;;;;;;;12.90;7.40;;;;;;;5.11;74.06;98316.17;219072;1256;140666;-67
2023/03/08 08:18:12;;;;;;;7.40;5.60;;;;;;;5.16;74.07;98324.90;218930;1257;140618;-66
2023/03/08 08:23:17;;;;;;;9.90;7.90;;;;;;;5.13;73.77;98323.67;219037;1257;139369;-67
2023/03/08 08:28:20;;;;;;;9.20;6.40;;;;;;;4.87;73.64;98324.52;217751;1256;140097;-66
2023/03/08 08:33:24;;;;;;;6.70;6.00;;;;;;;4.75;73.75;98326.00;218634;1256;139074;-66
2023/03/08 08:38:27;;;;;;;14.90;6.40;;;;;;;4.94;74.31;98332.85;219061;1257;140433;-66
2023/03/08 08:43:30;;;;;;;9.50;6.10;;;;;;;5.06;73.93;98337.06;217712;1257;140429;-66
2023/03/08 08:48:35;;;;;;;7.10;6.30;;;;;;;5.22;73.79;98338.05;218603;1256;139304;-65
2023/03/08 08:53:40;;;;;;;8.00;6.00;;;;;;;5.40;73.50;98336.94;218217;1259;139912;-63
2023/03/08 08:58:46;;;;;;;13.10;7.00;;;;;;;5.56;73.20;98332.89;218757;1257;140249;-67
2023/03/08 09:03:51;;;;;;;6.60;5.50;;;;;;;5.82;72.81;98337.90;217676;1257;140178;-63
2023/03/08 09:08:57;;;;;;;7.80;5.40;;;;;;;5.74;72.46;98331.59;218260;1256;140043;-64
2023/03/08 09:14:01;;;;;;;10.10;5.80;;;;;;;5.67;72.08;98323.06;217752;1257;139708;-63
2023/03/08 09:19:05;;;;;;;6.60;5.70;;;;;;;5.73;72.44;98330.83;218693;1257;139805;-64
2023/03/08 09:24:10;;;;;;;8.10;5.70;;;;;;;5.82;71.99;98329.93;218467;1256;139261;-66
2023/03/08 09:29:13;;;;;;;6.50;5.90;;;;;;;5.74;71.43;98329.46;218554;1256;139059;-66
2023/03/08 09:34:15;;;;;;;6.60;5.40;;;;;;;5.79;71.79;98327.44;217606;1260;139744;-63
2023/03/08 09:39:18;;;;;;;9.30;6.70;;;;;;;6.23;72.02;98333.92;218761;1256;140067;-63
2023/03/08 09:44:43;;;;;;;11.60;6.60;;;;;;;6.66;71.96;98334.52;218274;1256;140915;-64
2023/03/08 09:49:51;;;;;;;11.00;6.50;;;;;;;6.86;71.01;98341.56;220577;1256;142303;-65
2023/03/08 09:54:55;;;;;;;8.00;6.50;;;;;;;6.55;69.76;98342.77;220543;1256;140395;-67
2023/03/08 10:00:06;;;;;;;13.00;8.00;;;;;;;6.39;69.68;98346.34;219436;1256;141184;-66
2023/03/08 10:05:19;;;;;;;5.90;5.00;;;;;;;6.34;70.29;98341.55;220567;1256;139672;-66
2023/03/08 10:10:45;;;;;;;8.40;4.70;;;;;;;6.73;70.71;98338.10;217675;1257;138948;-66
2023/03/08 10:15:52;;;;;;;10.10;6.20;;;;;;;7.16;70.02;98330.52;218107;1256;139858;-66
2023/03/08 10:20:58;;;;;;;7.30;6.20;;;;;;;7.22;69.31;98333.45;218333;1256;139255;-66
2023/03/08 10:26:05;;;;;;;9.00;6.30;;;;;;;6.88;68.66;98331.10;218306;1260;140299;-66
2023/03/08 10:31:20;;;;;;;6.10;4.90;;;;;;;6.52;68.76;98334.67;217868;1256;139210;-66
2023/03/08 10:36:25;;;;;;;10.40;7.10;;;;;;;6.14;68.57;98322.08;218048;1260;139386;-65
2023/03/08 10:41:31;;;;;;;8.50;5.80;;;;;;;6.03;68.58;98313.71;217803;1257;140524;-68
2023/03/08 10:46:46;;;;;;;8.60;5.90;;;;;;;5.86;68.09;98316.31;217965;1256;140686;-67
2023/03/08 10:52:00;;;;;;;8.40;6.70;;;;;;;5.58;68.63;98321.88;217686;1259;138760;-66
2023/03/08 10:57:04;;;;;;;7.60;5.40;;;;;;;5.38;68.82;98320.52;218191;1257;140112;-66
2023/03/08 11:02:12;;;;;;;8.00;5.80;;;;;;;5.30;68.96;98313.73;218686;1256;141130;-66
2023/03/08 11:07:26;;;;;;;10.90;7.20;;;;;;;5.28;69.01;98306.67;218705;1257;139875;-66
2023/03/08 11:12:30;;;;;;;8.60;6.30;;;;;;;5.36;69.14;98288.34;217888;1256;139404;-66
2023/03/08 11:17:40;;;;;;;9.10;5.70;;;;;;;5.44;68.61;98281.82;218381;1256;140316;-65
2023/03/08 11:22:59;;;;;;;7.80;5.80;;;;;;;5.56;68.61;98284.66;218941;1257;139495;-65
2023/03/08 11:28:24;;;;;;;7.40;6.70;;;;;;;5.47;68.48;98278.83;218532;1256;139955;-66
2023/03/08 11:33:49;;;;;;;9.50;6.50;;;;;;;5.38;68.36;98272.89;219555;1256;139132;-65
2023/03/08 11:39:24;;;;;;;6.20;5.60;;;;;;;5.32;68.48;98268.55;218776;1256;138797;-65
2023/03/08 11:44:30;;;;;;;10.20;5.00;;;;;;;5.32;68.62;98266.38;217683;1256;139639;-67
2023/03/08 11:49:42;;;;;;;7.90;5.40;;;;;;;5.44;68.65;98268.72;220330;1256;139409;-67
2023/03/08 11:55:01;;;;;;;7.20;5.50;;;;;;;5.78;69.02;98266.73;220465;1256;139795;-68
2023/03/08 12:00:33;;;;;;;5.80;4.60;;;;;;;6.05;68.25;98262.52;219373;1256;139873;-67
2023/03/08 12:05:49;;;;;;;5.40;4.70;;;;;;;6.16;67.26;98254.21;220617;1256;140830;-67
2023/03/08 12:11:00;;;;;;;8.00;5.40;;;;;;;6.14;67.29;98248.33;218640;1256;139074;-67
2023/03/08 12:16:20;;;;;;;6.50;3.60;;;;;;;6.02;67.05;98246.49;217864;1256;138793;-67
2023/03/08 12:21:50;;;;;;;7.70;3.40;;;;;;;5.94;67.01;98245.67;219951;1256;139729;-68
2023/03/08 12:27:16;;;;;;;6.10;3.80;;;;;;;6.31;67.66;98245.65;217756;1257;139970;-66
2023/03/08 12:32:20;;;;;;;7.00;4.30;;;;;;;6.38;66.81;98239.56;218571;1257;159024;-67
2023/03/08 12:37:29;;;;;;;7.20;4.50;;;;;;;6.16;66.49;98241.20;217640;1256;139258;-68
2023/03/08 12:42:40;;;;;;;4.90;3.50;;;;;;;5.99;66.45;98245.92;217822;1256;139939;-67
2023/03/08 12:48:13;;;;;;;4.50;3.70;;;;;;;5.96;66.89;98236.88;218566;1256;139439;-66
2023/03/08 12:53:26;;;;;;;4.10;2.40;;;;;;;5.93;66.89;98226.73;218299;1256;138939;-66
2023/03/08 12:58:31;;;;;;;4.20;3.30;;;;;;;5.81;66.69;98222.66;218043;1257;139296;-66
2023/03/08 13:03:41;;;;;;;6.10;4.20;;;;;;;5.61;66.93;98218.38;218629;1256;139267;-67
2023/03/08 13:08:53;;;;;;;5.50;4.20;;;;;;;5.52;67.08;98206.23;217944;1257;140209;-66
2023/03/08 13:13:59;;;;;;;5.90;3.70;;;;;;;5.37;66.51;98193.60;217948;1257;139049;-66
2023/03/08 13:19:22;;;;;;;5.70;4.30;;;;;;;5.28;66.91;98186.21;218184;1259;139547;-65
2023/03/08 13:24:39;;;;;;;5.00;3.60;;;;;;;5.30;66.79;98180.90;217994;1257;139309;-68
2023/03/08 13:29:43;;;;;;;5.70;3.90;;;;;;;5.41;67.00;98181.14;218564;1256;139132;-67
2023/03/08 13:35:01;;;;;;;5.80;4.10;;;;;;;5.44;66.78;98175.34;218951;1256;139709;-68
2023/03/08 13:40:15;;;;;;;;;;;;;;;5.38;66.85;98174.70;218628;1256;138922;-68
2023/03/08 13:45:20;;;;;;;6.80;3.50;;;;;;;5.26;67.24;98172.00;220427;1256;125418;-68
2023/03/08 13:50:28;;;;;;;4.90;3.70;;;;;;;5.21;67.28;98165.33;220021;1256;139614;-65
2023/03/08 13:55:43;;;;;;;5.60;4.50;;;;;;;5.18;66.97;98159.94;220534;1256;139382;-69
2023/03/08 14:01:13;;;;;;;7.10;4.40;;;;;;;5.18;67.01;98157.79;218462;1257;140052;-67
2023/03/08 14:06:32;;;;;;;4.40;3.70;;;;;;;5.24;67.42;98151.09;218341;1257;140959;-67
2023/03/08 14:11:38;;;;;;;;;;;;;;;5.24;67.43;98152.10;218865;1256;141294;-67
2023/03/08 14:16:42;;;;;;;5.30;4.00;;;;;;;5.15;67.43;98142.52;218054;1259;126262;-67
2023/03/08 14:21:49;;;;;;;8.60;5.10;;;;;;;5.12;67.31;98140.65;217885;1259;140461;-68
2023/03/08 14:27:01;;;;;;;8.30;6.80;;;;;;;5.14;67.66;98136.38;217870;1257;138583;-68
2023/03/08 14:32:12;;;;;;;6.40;4.30;;;;;;;5.13;67.60;98130.64;218661;1257;140637;-69
2023/03/08 14:37:29;;;;;;;10.70;7.40;;;;;;;5.10;67.55;98124.15;218426;1256;139190;-65
2023/03/08 14:42:41;;;;;;;;;;;;;;;5.18;67.94;98119.91;217643;1259;139854;-65
2023/03/08 14:47:57;;;;;;;12.20;7.10;;;;;;;5.16;67.96;98116.17;218916;1259;127000;-66
2023/03/08 14:53:01;;;;;;;10.60;6.70;;;;;;;5.16;67.98;98109.89;218654;1256;139878;-67
2023/03/08 14:58:10;;;;;;;12.00;9.40;;;;;;;5.10;68.11;98098.02;219130;1256;140785;-67
2023/03/08 15:03:13;;;;;;;12.20;7.30;;;;;;;5.04;67.90;98096.11;217647;1257;140121;-64
2023/03/08 15:08:16;;;;;;;11.00;7.60;;;;;;;4.96;68.06;98091.84;217728;1257;140315;-66
2023/03/08 15:13:23;;;;;;;10.70;8.50;;;;;;;4.68;67.82;98087.72;218166;1256;141217;-67
2023/03/08 15:18:26;;;;;;;10.80;8.90;;;;;;;4.28;68.46;98084.59;219443;1257;140226;-67
2023/03/08 15:23:34;;;;;;;14.80;8.20;;;;;;;4.13;69.37;98088.15;219439;1256;142740;-67
2023/03/08 15:28:37;;;;;;;11.10;8.00;;;;;;;4.09;69.82;98085.27;217871;1256;140367;-65
2023/03/08 15:33:40;;;;;;;11.70;6.80;;;;;;;4.00;70.28;98082.92;218060;1259;141684;-66
2023/03/08 15:38:43;;;;;;;13.70;9.00;;;;;;;3.85;70.21;98078.39;220369;1256;142681;-65
2023/03/08 15:43:46;;;;;;;14.30;9.40;;;;;;;3.64;70.65;98070.42;220306;1256;142750;-65
2023/03/08 15:48:49;;;;;;;16.30;9.20;;;;;;;3.54;71.21;98065.92;220222;1256;141620;-65
2023/03/08 15:53:52;;;;;;;16.70;10.60;;;;;;;3.43;71.41;98066.15;217835;1256;140111;-66
2023/03/08 15:58:55;;;;;;;14.70;10.10;;;;;;;3.27;71.80;98063.63;219867;1256;141224;-67
2023/03/08 16:03:59;;;;;;;17.20;9.90;;;;;;;3.16;72.28;98062.22;217781;1257;140578;-66
2023/03/08 16:09:01;;;;;;;14.30;8.90;;;;;;;3.06;72.56;98070.08;219343;1256;141343;-65
2023/03/08 16:14:04;;;;;;;11.90;8.30;;;;;;;2.90;72.54;98066.03;218750;1257;140292;-65
2023/03/08 16:19:07;;;;;;;12.00;8.90;;;;;;;2.72;72.94;98059.79;217903;1256;461012;-64
2023/03/08 16:24:10;;;;;;;15.00;10.50;;;;;;;2.51;73.28;98056.65;219515;1256;141137;-67
2023/03/08 16:29:13;;;;;;;21.40;13.40;;;;;;;2.31;73.37;98054.05;218262;1256;140879;-66
2023/03/08 16:34:16;;;;;;;19.00;11.60;;;;;;;2.23;74.31;98055.04;218327;1257;140775;-67
2023/03/08 16:39:19;;;;;;;23.70;13.80;;;;;;;2.17;74.16;98055.86;218837;1257;141394;-65
2023/03/08 16:44:26;;;;;;;29.90;21.70;;;;;;;2.00;74.46;98055.63;217829;1255;140959;-66
2023/03/08 16:49:30;;;;;;;33.40;18.90;;;;;;;1.92;75.20;98059.11;218084;1257;140759;-67
2023/03/08 16:54:33;;;;;;;24.00;14.20;;;;;;;1.94;75.81;98058.52;217909;1257;140465;-64
2023/03/08 16:59:39;;;;;;;26.50;16.10;;;;;;;1.98;75.82;98052.82;217885;1256;140002;-64
2023/03/08 17:04:43;;;;;;;38.40;20.20;;;;;;;1.93;75.91;98050.16;217790;1257;140095;-64
2023/03/08 17:09:49;;;;;;;67.30;31.90;;;;;;;1.83;75.65;98048.98;218139;1256;141030;-67
2023/03/08 17:14:52;;;;;;;47.20;26.60;;;;;;;1.70;75.77;98043.11;218544;1259;140762;-65
2023/03/08 17:19:57;;;;;;;33.20;20.90;;;;;;;1.59;76.16;98035.95;218359;1257;140332;-62
2023/03/08 17:25:01;;;;;;;38.30;20.10;;;;;;;1.44;76.32;98034.72;218393;1256;141075;-67
2023/03/08 17:30:05;;;;;;;35.20;22.80;;;;;;;1.32;76.89;98032.31;219064;1260;141694;-67
2023/03/08 17:35:12;;;;;;;45.10;23.70;;;;;;;1.30;76.87;98033.42;219327;1256;140238;-68
2023/03/08 17:40:17;;;;;;;49.40;28.10;;;;;;;1.29;77.40;98031.37;220387;1256;140697;-67
2023/03/08 17:45:20;;;;;;;42.90;24.80;;;;;;;1.27;77.25;98027.34;220260;1256;141285;-68
2023/03/08 17:50:22;;;;;;;43.80;27.20;;;;;;;1.30;77.67;98025.34;219741;1256;140423;-69
2023/03/08 17:55:26;;;;;;;56.80;28.60;;;;;;;1.28;77.54;98023.48;219222;1256;139818;-68
2023/03/08 18:00:29;;;;;;;70.00;31.20;;;;;;;1.19;77.96;98022.77;220154;1256;141170;-67
2023/03/08 18:05:31;;;;;;;108.20;45.10;;;;;;;1.13;78.14;98013.85;217745;1261;144275;-65
2023/03/08 18:10:34;;;;;;;95.60;38.40;;;;;;;1.09;78.16;98006.95;217957;1256;140091;-66
2023/03/08 18:15:36;;;;;;;130.00;48.50;;;;;;;1.04;78.62;97997.66;218855;1257;141207;-66
2023/03/08 18:20:39;;;;;;;67.30;31.50;;;;;;;1.01;78.89;97997.44;219016;1256;140573;-67
2023/03/08 18:25:41;;;;;;;45.00;24.20;;;;;;;1.02;79.08;97985.80;218224;1260;140325;-67
2023/03/08 18:30:44;;;;;;;43.60;25.20;;;;;;;1.03;79.07;97978.01;217590;1257;140335;-65
2023/03/08 18:35:58;;;;;;;46.10;27.20;;;;;;;1.06;79.26;97958.56;218280;1257;140320;-66
2023/03/08 18:41:17;;;;;;;59.40;33.80;;;;;;;1.14;79.68;97955.70;217500;1257;140210;-64
2023/03/08 18:46:27;;;;;;;84.00;36.70;;;;;;;1.19;79.88;97952.23;217267;1262;140186;-68
2023/03/08 18:51:31;;;;;;;58.00;32.70;;;;;;;1.22;79.98;97942.20;218886;1257;140687;-67
2023/03/08 18:56:35;;;;;;;65.40;33.50;;;;;;;1.24;79.99;97931.80;217307;1257;140310;-66
2023/03/08 19:01:37;;;;;;;68.50;40.80;;;;;;;1.26;79.78;97915.74;217289;1261;140716;-66
2023/03/08 19:06:44;;;;;;;75.30;41.30;;;;;;;1.26;80.11;97908.60;217485;1261;140022;-69
2023/03/08 19:11:48;;;;;;;65.30;35.60;;;;;;;1.25;79.90;97908.25;217539;1260;140469;-66
2023/03/08 19:16:53;;;;;;;65.50;37.20;;;;;;;1.25;80.23;97902.06;218025;1257;140824;-66
2023/03/08 19:21:56;;;;;;;82.20;38.10;;;;;;;1.27;80.37;97889.70;218547;1256;143910;-65
2023/03/08 19:27:02;;;;;;;82.50;50.20;;;;;;;1.28;80.67;97883.89;218567;1256;140635;-65
2023/03/08 19:32:06;;;;;;;49.60;30.60;;;;;;;1.29;80.48;97875.41;217917;1257;140589;-66
2023/03/08 19:37:12;;;;;;;48.50;28.90;;;;;;;1.28;80.42;97872.36;218962;1259;140587;-66
2023/03/08 19:42:15;;;;;;;43.00;25.50;;;;;;;1.26;80.40;97866.67;219402;1256;139907;-67
2023/03/08 19:47:19;;;;;;;49.00;28.20;;;;;;;1.24;80.70;97868.03;219802;1257;141583;-63
2023/03/08 19:52:22;;;;;;;55.20;27.50;;;;;;;1.23;80.68;97864.90;220302;1256;140634;-66
2023/03/08 19:57:26;;;;;;;57.10;31.00;;;;;;;1.23;80.78;97859.50;220368;1256;140793;-66
2023/03/08 20:02:29;;;;;;;59.30;37.70;;;;;;;1.24;80.61;97850.23;220161;1257;140560;-64
2023/03/08 20:07:32;;;;;;;56.40;30.60;;;;;;;1.25;80.84;97843.16;220283;1256;140522;-66
2023/03/08 20:12:36;;;;;;;41.90;24.20;;;;;;;1.26;80.38;97832.01;218535;1257;141625;-67
2023/03/08 20:17:40;;;;;;;47.90;27.70;;;;;;;1.26;80.78;97827.39;218474;1257;144818;-64
2023/03/08 20:22:42;;;;;;;39.40;22.90;;;;;;;1.27;80.73;97831.14;218821;1256;140789;-63
2023/03/08 20:27:45;;;;;;;41.40;22.50;;;;;;;1.22;81.10;97826.36;218031;1256;140683;-66
2023/03/08 20:32:52;;;;;;;41.00;23.20;;;;;;;1.16;81.19;97823.63;218360;1256;142635;-65
2023/03/08 20:37:54;;;;;;;43.80;24.20;;;;;;;1.09;81.16;97819.50;217980;1257;140148;-61
2023/03/08 20:42:57;;;;;;;44.10;22.20;;;;;;;1.05;81.36;97814.91;218672;1257;141285;-65
2023/03/08 20:48:00;;;;;;;38.30;22.30;;;;;;;0.99;81.46;97808.42;218015;1256;140096;-63
2023/03/08 20:53:03;;;;;;;41.90;23.10;;;;;;;0.94;81.74;97805.33;217450;1257;139942;-64
2023/03/08 20:58:07;;;;;;;35.90;21.50;;;;;;;0.89;81.80;97798.13;217876;1260;142158;-66
2023/03/08 21:03:11;;;;;;;36.10;22.90;;;;;;;0.86;81.68;97795.16;218216;1257;141016;-64
2023/03/08 21:08:14;;;;;;;33.50;19.60;;;;;;;0.81;82.15;97788.77;218582;1256;139885;-63
2023/03/08 21:13:16;;;;;;;36.60;20.90;;;;;;;0.77;81.89;97788.21;218759;1260;141385;-65
2023/03/08 21:18:19;;;;;;;37.00;17.80;;;;;;;0.74;81.99;97788.56;217930;1260;141157;-64
2023/03/08 21:23:36;;;;;;;29.50;18.90;;;;;;;0.74;82.22;97786.51;218571;1257;140546;-62
2023/03/08 21:28:44;;;;;;;34.20;20.60;;;;;;;0.74;82.38;97781.79;218558;1260;139980;-63
2023/03/08 21:33:47;;;;;;;29.20;18.10;;;;;;;0.74;82.54;97788.03;218917;1260;140618;-65
2023/03/08 21:38:55;;;;;;;28.00;16.50;;;;;;;0.75;82.69;97784.92;219919;1260;141678;-66
2023/03/08 21:44:04;;;;;;;31.60;16.60;;;;;;;0.77;82.68;97776.02;219255;1259;140192;-69
2023/03/08 21:49:20;;;;;;;30.80;16.50;;;;;;;0.80;82.52;97767.16;219429;1260;140741;-68
2023/03/08 21:54:26;;;;;;;27.10;16.40;;;;;;;0.82;82.40;97761.77;218693;1260;141687;-68
2023/03/08 21:59:30;;;;;;;31.80;17.50;;;;;;;0.80;82.54;97761.66;218351;1257;140659;-68
2023/03/08 22:04:33;;;;;;;23.80;15.40;;;;;;;0.79;82.38;97760.74;219030;1256;140442;-67
2023/03/08 22:09:36;;;;;;;20.20;12.90;;;;;;;0.78;83.10;97758.95;217875;1259;140000;-67
2023/03/08 22:14:40;;;;;;;27.60;14.30;;;;;;;0.75;82.90;97749.09;217871;1257;139957;-67
2023/03/08 22:19:43;;;;;;;29.00;13.80;;;;;;;0.69;82.70;97748.35;218732;1262;140893;-68
2023/03/08 22:24:46;;;;;;;19.30;11.70;;;;;;;0.65;82.83;97745.81;217955;1257;141291;-67
2023/03/08 22:29:50;;;;;;;20.80;11.30;;;;;;;0.61;82.72;97745.98;218482;1260;140160;-66
2023/03/08 22:34:53;;;;;;;19.60;11.40;;;;;;;0.58;82.64;97732.73;217524;1257;140687;-67
2023/03/08 22:39:56;;;;;;;21.70;12.30;;;;;;;0.54;83.06;97729.47;217786;1261;140267;-66
2023/03/08 22:44:59;;;;;;;18.20;11.80;;;;;;;0.50;83.05;97721.52;218079;1258;140284;-67
2023/03/08 22:50:02;;;;;;;15.20;9.60;;;;;;;0.47;83.29;97712.76;217562;1260;140779;-68
2023/03/08 22:55:07;;;;;;;14.50;8.80;;;;;;;0.44;83.37;97724.61;218072;1256;140174;-65
2023/03/08 23:00:13;;;;;;;15.90;10.40;;;;;;;0.41;83.56;97732.30;217452;1260;140039;-66
2023/03/08 23:05:19;;;;;;;12.00;8.00;;;;;;;0.41;83.59;97735.36;217840;1257;140035;-66
2023/03/08 23:10:23;;;;;;;23.50;11.90;;;;;;;0.40;83.79;97736.86;218098;1257;140129;-67
2023/03/08 23:15:26;;;;;;;24.40;12.30;;;;;;;0.39;83.79;97737.36;218535;1256;141239;-63
2023/03/08 23:20:30;;;;;;;20.30;12.60;;;;;;;0.39;83.94;97742.56;218567;1257;140409;-65
2023/03/08 23:25:34;;;;;;;21.10;13.20;;;;;;;0.39;83.95;97748.13;217747;1257;140388;-62